Time;durP1;ratioP1;P1;durP2;ratioP2;P2;SDS_P1;SDS_P2;PMS_P1;PMS_P2;Temp;Humidity;BMP_temperature;BMP_pressure;BME280_temperature;BME280_humidity;BME280_pressure;Samples;Min_cycle;Max_cycle;Signal;HPM_P1;HPM_P2
2023/03/13 00:01:01;;;;;;;5.37;1.10;;;;;;;;;;5085838;28;20861;-63
2023/03/13 00:03:30;;;;;;;5.90;1.37;;;;;;;;;;5068883;28;20212;-63
2023/03/13 00:05:57;;;;;;;5.83;0.90;;;;;;;;;;5070240;28;20214;-63
2023/03/13 00:08:24;;;;;;;1.57;1.20;;;;;;;;;;5073713;28;20202;-62
2023/03/13 00:10:52;;;;;;;1.93;0.90;;;;;;;;;;5071134;28;20215;-63
2023/03/13 00:13:19;;;;;;;4.80;1.40;;;;;;;;;;5082873;28;20205;-63
2023/03/13 00:15:46;;;;;;;7.33;0.97;;;;;;;;;;5075223;28;20203;-63
2023/03/13 00:18:13;;;;;;;10.70;1.23;;;;;;;;;;5080872;28;20570;-62
2023/03/13 00:20:41;;;;;;;6.23;1.77;;;;;;;;;;5081900;28;20203;-63
2023/03/13 00:23:08;;;;;;;7.97;1.07;;;;;;;;;;5069656;28;20237;-63
2023/03/13 00:25:35;;;;;;;5.77;1.30;;;;;;;;;;5069350;28;20936;-62
2023/03/13 00:28:02;;;;;;;3.30;1.10;;;;;;;;;;5069616;28;20235;-62
2023/03/13 00:30:29;;;;;;;5.20;0.80;;;;;;;;;;5074397;28;20304;-63
2023/03/13 00:32:56;;;;;;;8.70;1.33;;;;;;;;;;5070417;28;20207;-63
2023/03/13 00:35:23;;;;;;;2.30;1.20;;;;;;;;;;5075862;28;20426;-63
2023/03/13 00:37:51;;;;;;;3.07;0.93;;;;;;;;;;5089184;28;20295;-63
2023/03/13 00:40:19;;;;;;;7.27;1.17;;;;;;;;;;5086987;28;20205;-63
2023/03/13 00:42:46;;;;;;;4.23;0.93;;;;;;;;;;5083280;28;20238;-62
2023/03/13 00:45:13;;;;;;;2.40;0.93;;;;;;;;;;5073700;28;20210;-63
2023/03/13 00:47:40;;;;;;;3.70;0.87;;;;;;;;;;5068902;28;20638;-62
2023/03/13 00:50:07;;;;;;;3.30;1.67;;;;;;;;;;5071873;28;20215;-63
2023/03/13 00:52:34;;;;;;;1.57;1.00;;;;;;;;;;5068875;28;20236;-63
2023/03/13 00:55:12;;;;;;;4.80;1.10;;;;;;;;;;5080812;28;20206;-63
2023/03/13 00:57:39;;;;;;;1.87;1.00;;;;;;;;;;5089524;28;20198;-62
2023/03/13 01:00:06;;;;;;;1.70;0.93;;;;;;;;;;5085549;28;20210;-63
2023/03/13 01:02:33;;;;;;;4.03;1.00;;;;;;;;;;5069142;28;20286;-62
2023/03/13 01:05:00;;;;;;;2.40;0.70;;;;;;;;;;5069014;28;20735;-63
2023/03/13 01:07:29;;;;;;;3.90;1.50;;;;;;;;;;5088321;28;20233;-62
2023/03/13 01:09:56;;;;;;;6.13;1.20;;;;;;;;;;5088780;28;20211;-63
2023/03/13 01:12:25;;;;;;;3.10;1.10;;;;;;;;;;5069656;28;20207;-63
2023/03/13 01:14:52;;;;;;;4.13;0.97;;;;;;;;;;5068537;28;20206;-62
2023/03/13 01:17:19;;;;;;;5.83;1.20;;;;;;;;;;5062600;28;20626;-61
2023/03/13 01:19:46;;;;;;;4.50;1.03;;;;;;;;;;5069073;28;20902;-61
2023/03/13 01:22:13;;;;;;;3.23;1.07;;;;;;;;;;5084152;28;20709;-60
2023/03/13 01:24:40;;;;;;;1.63;0.87;;;;;;;;;;5087884;28;20207;-61
2023/03/13 01:27:07;;;;;;;3.07;0.60;;;;;;;;;;5077293;28;20676;-62
2023/03/13 01:29:35;;;;;;;5.40;1.20;;;;;;;;;;5069168;28;20211;-62
2023/03/13 01:32:02;;;;;;;6.43;1.00;;;;;;;;;;5079224;28;20866;-62
2023/03/13 01:34:30;;;;;;;2.80;0.97;;;;;;;;;;5062833;28;20206;-62
2023/03/13 01:36:57;;;;;;;4.63;1.00;;;;;;;;;;5079752;28;20859;-62
2023/03/13 01:39:24;;;;;;;4.23;1.37;;;;;;;;;;5077622;28;20369;-62
2023/03/13 01:41:51;;;;;;;3.53;0.87;;;;;;;;;;5079049;28;20700;-62
2023/03/13 01:44:21;;;;;;;5.53;0.90;;;;;;;;;;5079489;28;20427;-62
2023/03/13 01:46:50;;;;;;;3.83;1.03;;;;;;;;;;5075932;28;20210;-62
2023/03/13 01:49:18;;;;;;;1.73;0.90;;;;;;;;;;5068794;28;20260;-61
2023/03/13 01:51:49;;;;;;;4.17;0.77;;;;;;;;;;5076814;28;20214;-61
2023/03/13 01:54:17;;;;;;;4.03;0.80;;;;;;;;;;5087844;28;20206;-61
2023/03/13 01:56:48;;;;;;;5.13;0.87;;;;;;;;;;5079653;28;20199;-62
2023/03/13 01:59:17;;;;;;;1.60;0.83;;;;;;;;;;5080626;28;20264;-62
2023/03/13 02:01:44;;;;;;;2.03;1.03;;;;;;;;;;5077343;28;20213;-62
2023/03/13 02:04:13;;;;;;;2.90;1.03;;;;;;;;;;5085909;28;20209;-62
2023/03/13 02:06:42;;;;;;;1.90;1.23;;;;;;;;;;5075256;28;20210;-62
2023/03/13 02:09:11;;;;;;;4.57;0.93;;;;;;;;;;5077134;28;20289;-62
2023/03/13 02:11:44;;;;;;;1.33;0.63;;;;;;;;;;5065277;28;20207;-61
2023/03/13 02:14:11;;;;;;;3.57;0.60;;;;;;;;;;5073238;28;20199;-62
2023/03/13 02:16:38;;;;;;;5.90;0.90;;;;;;;;;;5086972;28;20206;-62
2023/03/13 02:19:09;;;;;;;5.40;0.67;;;;;;;;;;5077043;28;20301;-62
2023/03/13 02:21:41;;;;;;;4.43;0.80;;;;;;;;;;5070724;28;20231;-62
2023/03/13 02:24:13;;;;;;;3.90;1.03;;;;;;;;;;5076714;28;20218;-62
2023/03/13 02:26:55;;;;;;;5.47;1.37;;;;;;;;;;5069382;28;20202;-62
2023/03/13 02:29:22;;;;;;;5.03;0.70;;;;;;;;;;5080639;28;20230;-62
2023/03/13 02:31:49;;;;;;;3.87;1.07;;;;;;;;;;5086064;28;20571;-61
2023/03/13 02:34:19;;;;;;;1.17;0.60;;;;;;;;;;5075547;28;20203;-62
2023/03/13 02:36:46;;;;;;;1.27;0.97;;;;;;;;;;5080181;28;20209;-61
2023/03/13 02:39:14;;;;;;;1.37;0.60;;;;;;;;;;5078824;28;20226;-62
2023/03/13 02:41:45;;;;;;;3.27;1.33;;;;;;;;;;5079449;28;20305;-62
2023/03/13 02:44:12;;;;;;;0.70;0.67;;;;;;;;;;5079423;28;20199;-62
2023/03/13 02:46:46;;;;;;;3.93;0.87;;;;;;;;;;5071775;28;20203;-62
2023/03/13 02:49:19;;;;;;;4.93;0.67;;;;;;;;;;5071043;28;20229;-62
2023/03/13 02:51:46;;;;;;;4.27;0.80;;;;;;;;;;5088180;28;20224;-62
2023/03/13 02:54:17;;;;;;;1.70;0.90;;;;;;;;;;5082691;28;20202;-62
2023/03/13 02:56:47;;;;;;;4.70;0.90;;;;;;;;;;5066078;28;20206;-62
2023/03/13 02:59:15;;;;;;;3.50;0.73;;;;;;;;;;5067821;28;20642;-62
2023/03/13 03:01:42;;;;;;;0.80;0.80;;;;;;;;;;5073407;28;20210;-62
2023/03/13 03:04:09;;;;;;;5.67;0.80;;;;;;;;;;5068553;28;20207;-63
2023/03/13 03:06:36;;;;;;;4.17;0.73;;;;;;;;;;5085168;28;20206;-62
2023/03/13 03:09:03;;;;;;;3.33;0.87;;;;;;;;;;5091764;28;20222;-62
2023/03/13 03:11:30;;;;;;;3.10;0.83;;;;;;;;;;5070232;28;20207;-62
2023/03/13 03:13:58;;;;;;;3.73;0.80;;;;;;;;;;5071858;28;20354;-62
2023/03/13 03:16:25;;;;;;;6.00;1.20;;;;;;;;;;5082452;28;20211;-62
2023/03/13 03:18:52;;;;;;;4.73;0.70;;;;;;;;;;5072768;28;20203;-62
2023/03/13 03:21:20;;;;;;;4.83;1.10;;;;;;;;;;5089195;28;20688;-62
2023/03/13 03:23:47;;;;;;;3.60;1.03;;;;;;;;;;5092042;28;20696;-62
2023/03/13 03:26:14;;;;;;;6.67;1.33;;;;;;;;;;5083934;28;20724;-62
2023/03/13 03:28:41;;;;;;;2.93;1.00;;;;;;;;;;5077120;28;20231;-62
2023/03/13 03:31:10;;;;;;;2.70;0.70;;;;;;;;;;5082121;28;20217;-62
2023/03/13 03:33:38;;;;;;;0.97;0.80;;;;;;;;;;5085569;28;20703;-62
2023/03/13 03:36:06;;;;;;;6.80;1.10;;;;;;;;;;5081409;28;20207;-62
2023/03/13 03:38:33;;;;;;;1.27;0.60;;;;;;;;;;5080070;28;20231;-62
2023/03/13 03:41:01;;;;;;;7.10;1.10;;;;;;;;;;5071529;28;20662;-62
2023/03/13 03:43:28;;;;;;;6.00;0.60;;;;;;;;;;5077241;28;20211;-63
2023/03/13 03:45:55;;;;;;;4.43;0.87;;;;;;;;;;5069141;28;20213;-62
2023/03/13 03:48:23;;;;;;;0.50;0.50;;;;;;;;;;5079246;28;20677;-62
2023/03/13 03:50:50;;;;;;;0.63;0.60;;;;;;;;;;5081467;28;20732;-62
2023/03/13 03:53:17;;;;;;;4.60;0.97;;;;;;;;;;5067135;28;20294;-62
2023/03/13 03:55:45;;;;;;;3.00;0.60;;;;;;;;;;5081739;28;20236;-62
2023/03/13 03:58:12;;;;;;;0.50;0.50;;;;;;;;;;5074165;28;20199;-62
2023/03/13 04:00:39;;;;;;;2.33;0.90;;;;;;;;;;5059572;28;20585;-62
2023/03/13 04:03:06;;;;;;;1.70;0.70;;;;;;;;;;5073377;28;20225;-62
2023/03/13 04:05:34;;;;;;;1.33;0.70;;;;;;;;;;5072921;28;20207;-62
2023/03/13 04:08:01;;;;;;;5.03;0.70;;;;;;;;;;5084205;28;20229;-62
2023/03/13 04:10:28;;;;;;;2.67;0.90;;;;;;;;;;5076888;28;20627;-62
2023/03/13 04:12:55;;;;;;;2.53;0.40;;;;;;;;;;5073025;28;20219;-62
2023/03/13 04:15:22;;;;;;;0.40;0.40;;;;;;;;;;5085216;28;20199;-62
2023/03/13 04:17:49;;;;;;;4.33;0.93;;;;;;;;;;5073306;28;20209;-62
2023/03/13 04:20:16;;;;;;;3.43;0.60;;;;;;;;;;5086109;28;20258;-62
2023/03/13 04:22:45;;;;;;;1.10;0.70;;;;;;;;;;5075027;28;20238;-62
2023/03/13 04:25:12;;;;;;;1.80;0.50;;;;;;;;;;5081043;28;20232;-62
2023/03/13 04:27:39;;;;;;;0.57;0.53;;;;;;;;;;5078305;28;20589;-63
2023/03/13 04:30:06;;;;;;;1.03;0.50;;;;;;;;;;5065836;28;20574;-62
2023/03/13 04:32:34;;;;;;;0.60;0.40;;;;;;;;;;5073254;28;20286;-62
2023/03/13 04:35:01;;;;;;;1.17;0.57;;;;;;;;;;5077589;28;20203;-62
2023/03/13 04:37:28;;;;;;;0.60;0.60;;;;;;;;;;5065378;28;20203;-62
2023/03/13 04:39:56;;;;;;;1.70;0.60;;;;;;;;;;5071303;28;20207;-62
2023/03/13 04:42:23;;;;;;;3.07;0.40;;;;;;;;;;5083321;28;20206;-62
2023/03/13 04:44:50;;;;;;;1.40;0.50;;;;;;;;;;5080438;28;20202;-62
2023/03/13 04:47:17;;;;;;;1.93;0.47;;;;;;;;;;5083305;28;20210;-61
2023/03/13 04:49:44;;;;;;;0.97;0.47;;;;;;;;;;5080956;28;20221;-61
2023/03/13 04:52:11;;;;;;;0.30;0.30;;;;;;;;;;5089809;28;20214;-61
2023/03/13 04:54:38;;;;;;;1.87;0.60;;;;;;;;;;5084258;28;20206;-61
2023/03/13 04:57:07;;;;;;;1.70;0.57;;;;;;;;;;5086067;28;20648;-61
2023/03/13 04:59:34;;;;;;;0.43;0.43;;;;;;;;;;5077115;28;20245;-61
2023/03/13 05:02:01;;;;;;;0.40;0.40;;;;;;;;;;5072771;28;20207;-61
2023/03/13 05:04:28;;;;;;;0.47;0.47;;;;;;;;;;5073711;28;20577;-61
2023/03/13 05:06:55;;;;;;;0.50;0.47;;;;;;;;;;5075876;28;20215;-61
2023/03/13 05:09:22;;;;;;;0.83;0.30;;;;;;;;;;5073530;28;20215;-61
2023/03/13 05:11:49;;;;;;;2.73;0.60;;;;;;;;;;5074625;28;20807;-60
2023/03/13 05:14:18;;;;;;;0.77;0.40;;;;;;;;;;5070282;28;20218;-61
2023/03/13 05:16:45;;;;;;;0.57;0.50;;;;;;;;;;5053403;28;20291;-61
2023/03/13 05:19:12;;;;;;;0.30;0.30;;;;;;;;;;5083466;28;20205;-61
2023/03/13 05:21:39;;;;;;;0.43;0.40;;;;;;;;;;5077784;28;20230;-61
2023/03/13 05:24:06;;;;;;;1.03;0.50;;;;;;;;;;5072845;28;20212;-60
2023/03/13 05:26:33;;;;;;;1.50;0.43;;;;;;;;;;5082572;28;20690;-60
2023/03/13 05:29:00;;;;;;;1.83;0.40;;;;;;;;;;5083651;28;20287;-61
2023/03/13 05:31:29;;;;;;;0.30;0.30;;;;;;;;;;5069222;28;20214;-63
2023/03/13 05:33:56;;;;;;;0.87;0.30;;;;;;;;;;5087288;28;20446;-60
2023/03/13 05:36:23;;;;;;;1.03;0.60;;;;;;;;;;5081720;28;20252;-61
2023/03/13 05:38:50;;;;;;;0.30;0.30;;;;;;;;;;5069682;28;20242;-63
2023/03/13 05:41:17;;;;;;;1.03;0.40;;;;;;;;;;5066842;28;20469;-61
2023/03/13 05:43:44;;;;;;;0.30;0.30;;;;;;;;;;5088495;28;20214;-61
2023/03/13 05:46:11;;;;;;;2.10;0.50;;;;;;;;;;5068389;28;20214;-62
2023/03/13 05:48:39;;;;;;;1.40;0.60;;;;;;;;;;5067892;28;20237;-61
2023/03/13 05:51:06;;;;;;;0.67;0.67;;;;;;;;;;5074349;28;20203;-60
2023/03/13 05:53:33;;;;;;;2.43;0.57;;;;;;;;;;5076074;28;20202;-62
2023/03/13 05:56:07;;;;;;;2.17;0.77;;;;;;;;;;5072186;28;20202;-61
2023/03/13 05:58:34;;;;;;;4.37;0.80;;;;;;;;;;5073070;28;20194;-63
2023/03/13 06:01:06;;;;;;;0.20;0.20;;;;;;;;;;5076007;28;20268;-61
2023/03/13 06:03:33;;;;;;;0.77;0.53;;;;;;;;;;5088350;28;20259;-61
2023/03/13 06:06:01;;;;;;;3.03;0.60;;;;;;;;;;5070515;28;20203;-61
2023/03/13 06:08:28;;;;;;;0.47;0.40;;;;;;;;;;5062470;28;20242;-61
2023/03/13 06:10:55;;;;;;;0.70;0.63;;;;;;;;;;5058082;28;20253;-61
2023/03/13 06:13:22;;;;;;;1.03;0.67;;;;;;;;;;5068153;28;20675;-61
2023/03/13 06:15:53;;;;;;;0.40;0.40;;;;;;;;;;5075299;28;20202;-62
2023/03/13 06:18:20;;;;;;;0.50;0.50;;;;;;;;;;5082247;28;20289;-65
2023/03/13 06:20:50;;;;;;;2.30;0.70;;;;;;;;;;5083162;28;20704;-61
2023/03/13 06:23:18;;;;;;;1.23;0.70;;;;;;;;;;5066042;28;20210;-61
2023/03/13 06:25:48;;;;;;;1.17;0.60;;;;;;;;;;5066479;28;20320;-61
2023/03/13 06:28:15;;;;;;;0.43;0.43;;;;;;;;;;5075332;28;20226;-61
2023/03/13 06:30:42;;;;;;;0.50;0.50;;;;;;;;;;5081978;28;20683;-63
2023/03/13 06:33:09;;;;;;;2.17;1.70;;;;;;;;;;5082933;28;20343;-66
2023/03/13 06:35:36;;;;;;;2.47;0.57;;;;;;;;;;5071198;28;20217;-60
2023/03/13 06:38:03;;;;;;;0.40;0.40;;;;;;;;;;5071347;28;20238;-61
2023/03/13 06:40:32;;;;;;;1.70;0.87;;;;;;;;;;5074114;28;20206;-61
2023/03/13 06:42:59;;;;;;;0.83;0.70;;;;;;;;;;5062757;28;20672;-61
2023/03/13 06:45:26;;;;;;;0.43;0.43;;;;;;;;;;5057946;28;20204;-62
2023/03/13 06:47:53;;;;;;;0.60;0.60;;;;;;;;;;5070787;28;20211;-61
2023/03/13 06:50:20;;;;;;;0.50;0.50;;;;;;;;;;5065532;28;20284;-61
2023/03/13 06:52:47;;;;;;;0.30;0.30;;;;;;;;;;5065270;28;20207;-61
2023/03/13 06:55:15;;;;;;;0.27;0.27;;;;;;;;;;5064965;28;20207;-61
2023/03/13 06:57:43;;;;;;;0.40;0.30;;;;;;;;;;5067126;28;20697;-61
2023/03/13 07:00:11;;;;;;;0.20;0.20;;;;;;;;;;5067284;28;20269;-61
2023/03/13 07:02:38;;;;;;;0.23;0.23;;;;;;;;;;5064864;28;20219;-61
2023/03/13 07:05:06;;;;;;;1.07;0.40;;;;;;;;;;5060296;28;20641;-61
2023/03/13 07:07:34;;;;;;;0.93;0.40;;;;;;;;;;5065629;28;20221;-61
2023/03/13 07:10:01;;;;;;;1.50;0.27;;;;;;;;;;5067147;28;20237;-61
2023/03/13 07:12:28;;;;;;;0.20;0.20;;;;;;;;;;5067406;28;20272;-61
2023/03/13 07:14:56;;;;;;;0.20;0.20;;;;;;;;;;5067331;28;20608;-62
2023/03/13 07:17:23;;;;;;;0.27;0.27;;;;;;;;;;5066846;28;20226;-61
2023/03/13 07:19:50;;;;;;;0.20;0.20;;;;;;;;;;5064994;28;20203;-63
2023/03/13 07:22:17;;;;;;;0.30;0.30;;;;;;;;;;5067209;28;20230;-62
2023/03/13 07:24:44;;;;;;;0.20;0.20;;;;;;;;;;5066929;28;20284;-62
2023/03/13 07:27:12;;;;;;;0.20;0.20;;;;;;;;;;5066936;28;20274;-62
2023/03/13 07:29:39;;;;;;;0.17;0.17;;;;;;;;;;5066826;28;20642;-62
2023/03/13 07:32:08;;;;;;;1.40;0.40;;;;;;;;;;5067270;28;20217;-62
2023/03/13 07:34:35;;;;;;;0.20;0.20;;;;;;;;;;5066857;28;20216;-62
2023/03/13 07:37:02;;;;;;;0.20;0.20;;;;;;;;;;5067105;28;20210;-62
2023/03/13 07:39:29;;;;;;;0.50;0.50;;;;;;;;;;5066872;28;20231;-62
2023/03/13 07:41:56;;;;;;;2.20;0.40;;;;;;;;;;5067152;28;20220;-62
2023/03/13 07:44:23;;;;;;;0.33;0.33;;;;;;;;;;5067169;28;20628;-62
2023/03/13 07:46:50;;;;;;;0.30;0.30;;;;;;;;;;5066753;28;20299;-62
2023/03/13 07:49:18;;;;;;;0.27;0.27;;;;;;;;;;5066499;28;20253;-62
2023/03/13 07:51:47;;;;;;;1.20;0.40;;;;;;;;;;5066908;28;20245;-62
2023/03/13 07:54:14;;;;;;;0.40;0.40;;;;;;;;;;5069196;28;20241;-62
2023/03/13 07:56:41;;;;;;;0.60;0.60;;;;;;;;;;5070311;28;20662;-62
2023/03/13 07:59:08;;;;;;;0.37;0.37;;;;;;;;;;5070391;28;20207;-62
2023/03/13 08:01:35;;;;;;;1.40;0.40;;;;;;;;;;5070466;28;20207;-62
2023/03/13 08:04:02;;;;;;;0.50;0.50;;;;;;;;;;5070377;28;20237;-62
2023/03/13 08:06:34;;;;;;;0.47;0.47;;;;;;;;;;5070548;28;20883;-62
2023/03/13 08:09:01;;;;;;;3.03;0.83;;;;;;;;;;5070559;28;20339;-62
2023/03/13 08:11:29;;;;;;;1.10;0.50;;;;;;;;;;5070321;28;20813;-62
2023/03/13 08:13:56;;;;;;;0.60;0.60;;;;;;;;;;5070032;28;20210;-62
2023/03/13 08:16:24;;;;;;;2.50;0.80;;;;;;;;;;5069807;28;20215;-62
2023/03/13 08:18:52;;;;;;;0.70;0.70;;;;;;;;;;5069960;28;20256;-62
2023/03/13 08:21:20;;;;;;;0.70;0.70;;;;;;;;;;5069813;28;20284;-62
2023/03/13 08:23:49;;;;;;;0.70;0.70;;;;;;;;;;5069801;28;20569;-62
2023/03/13 08:26:17;;;;;;;1.93;0.60;;;;;;;;;;5069765;28;20273;-62
2023/03/13 08:28:45;;;;;;;0.87;0.80;;;;;;;;;;5069629;28;20215;-62
2023/03/13 08:31:13;;;;;;;0.70;0.70;;;;;;;;;;5069719;28;20213;-62
2023/03/13 08:33:40;;;;;;;0.50;0.50;;;;;;;;;;5069737;28;20666;-63
2023/03/13 08:36:12;;;;;;;0.70;0.70;;;;;;;;;;5069704;28;20268;-62
2023/03/13 08:38:40;;;;;;;0.40;0.40;;;;;;;;;;5069552;28;20258;-62
2023/03/13 08:41:09;;;;;;;0.80;0.73;;;;;;;;;;5069801;28;20206;-62
2023/03/13 08:43:36;;;;;;;0.60;0.60;;;;;;;;;;5069968;28;20210;-62
2023/03/13 08:46:03;;;;;;;0.70;0.70;;;;;;;;;;5069457;28;20601;-62
2023/03/13 08:48:30;;;;;;;2.63;0.70;;;;;;;;;;5069456;28;20253;-62
2023/03/13 08:51:01;;;;;;;3.43;0.67;;;;;;;;;;5069181;28;20223;-62
2023/03/13 08:53:28;;;;;;;0.70;0.70;;;;;;;;;;5069375;28;20319;-62
2023/03/13 08:55:55;;;;;;;0.90;0.90;;;;;;;;;;5069298;28;20222;-62
2023/03/13 08:58:24;;;;;;;1.20;1.20;;;;;;;;;;5069380;28;20207;-62
2023/03/13 09:00:51;;;;;;;0.97;0.73;;;;;;;;;;5069361;28;20215;-62
2023/03/13 09:03:18;;;;;;;0.60;0.60;;;;;;;;;;5069344;28;20215;-62
2023/03/13 09:05:46;;;;;;;0.83;0.53;;;;;;;;;;5068923;28;20214;-62
2023/03/13 09:08:14;;;;;;;0.70;0.70;;;;;;;;;;5069082;28;20276;-62
2023/03/13 09:10:41;;;;;;;0.60;0.60;;;;;;;;;;5069359;28;20451;-62
2023/03/13 09:13:08;;;;;;;0.70;0.70;;;;;;;;;;5069211;28;20309;-62
2023/03/13 09:15:36;;;;;;;0.50;0.50;;;;;;;;;;5068744;28;20214;-63
2023/03/13 09:18:05;;;;;;;2.10;0.70;;;;;;;;;;5068843;28;20215;-62
2023/03/13 09:20:32;;;;;;;2.43;0.87;;;;;;;;;;5068508;28;20237;-62
2023/03/13 09:22:59;;;;;;;0.73;0.60;;;;;;;;;;5068712;28;20235;-62
2023/03/13 09:25:26;;;;;;;0.67;0.67;;;;;;;;;;5068860;28;20211;-62
2023/03/13 09:27:53;;;;;;;0.73;0.73;;;;;;;;;;5068698;28;20221;-62
2023/03/13 09:30:20;;;;;;;0.60;0.60;;;;;;;;;;5068622;28;20242;-63
2023/03/13 09:32:48;;;;;;;0.87;0.77;;;;;;;;;;5068777;28;20272;-63
2023/03/13 09:35:15;;;;;;;0.80;0.80;;;;;;;;;;5068825;28;20252;-62
2023/03/13 09:37:42;;;;;;;0.70;0.70;;;;;;;;;;5068339;28;20245;-62
2023/03/13 09:40:13;;;;;;;3.00;0.60;;;;;;;;;;5068413;28;20203;-62
2023/03/13 09:42:44;;;;;;;0.60;0.43;;;;;;;;;;5068389;28;20210;-62
2023/03/13 09:45:14;;;;;;;0.70;0.70;;;;;;;;;;5068451;28;20213;-62
2023/03/13 09:47:43;;;;;;;0.70;0.70;;;;;;;;;;5068518;28;20211;-62
2023/03/13 09:50:14;;;;;;;1.30;0.60;;;;;;;;;;5073148;28;20279;-62
2023/03/13 09:52:42;;;;;;;2.23;0.80;;;;;;;;;;5074439;28;20570;-62
2023/03/13 09:55:14;;;;;;;0.50;0.50;;;;;;;;;;5068259;28;20582;-62
2023/03/13 09:57:44;;;;;;;0.80;0.80;;;;;;;;;;5083519;28;20866;-62
2023/03/13 10:00:13;;;;;;;1.03;0.80;;;;;;;;;;5085631;28;20206;-62
2023/03/13 10:02:44;;;;;;;0.80;0.80;;;;;;;;;;5068908;28;20214;-62
2023/03/13 10:05:16;;;;;;;0.90;0.90;;;;;;;;;;5070230;28;20272;-62
2023/03/13 10:07:43;;;;;;;0.52;0.52;;;;;;;;;;5070387;28;20199;-61
2023/03/13 10:10:15;;;;;;;0.70;0.70;;;;;;;;;;5069116;28;20227;-63
2023/03/13 10:12:44;;;;;;;1.02;0.95;;;;;;;;;;5068145;28;20211;-61
2023/03/13 10:15:28;;;;;;;0.88;0.88;;;;;;;;;;5075800;28;20209;-63
2023/03/13 10:17:55;;;;;;;1.95;1.00;;;;;;;;;;5072618;28;20210;-63
2023/03/13 10:20:25;;;;;;;1.20;1.10;;;;;;;;;;5078563;28;20214;-62
2023/03/13 10:22:57;;;;;;;2.25;0.82;;;;;;;;;;5086673;28;20235;-64
2023/03/13 10:25:29;;;;;;;0.85;0.85;;;;;;;;;;5067284;28;20300;-64
2023/03/13 10:27:57;;;;;;;1.58;0.85;;;;;;;;;;5082078;28;20209;-62
2023/03/13 10:30:25;;;;;;;0.70;0.65;;;;;;;;;;5081990;28;20281;-63
2023/03/13 10:32:54;;;;;;;0.90;0.90;;;;;;;;;;5067409;28;20203;-62
2023/03/13 10:35:24;;;;;;;1.20;1.20;;;;;;;;;;5078407;28;20286;-63
2023/03/13 10:37:51;;;;;;;0.70;0.70;;;;;;;;;;5067689;28;21021;-63
2023/03/13 10:40:22;;;;;;;0.73;0.73;;;;;;;;;;5067825;28;20207;-63
2023/03/13 10:42:51;;;;;;;1.27;1.10;;;;;;;;;;5067618;28;20256;-63
2023/03/13 10:45:19;;;;;;;0.75;0.75;;;;;;;;;;5067609;28;20210;-63
2023/03/13 10:47:54;;;;;;;0.70;0.70;;;;;;;;;;5067328;28;20210;-63
2023/03/13 10:50:22;;;;;;;0.70;0.70;;;;;;;;;;5067431;28;20226;-62
2023/03/13 10:52:51;;;;;;;0.88;0.88;;;;;;;;;;5066718;28;20272;-63
2023/03/13 10:55:19;;;;;;;0.70;0.70;;;;;;;;;;5067206;28;20704;-63
2023/03/13 10:57:53;;;;;;;0.60;0.60;;;;;;;;;;5067711;28;20207;-63
2023/03/13 11:00:37;;;;;;;0.68;0.68;;;;;;;;;;5067280;28;20286;-63
2023/03/13 11:03:07;;;;;;;2.90;0.77;;;;;;;;;;5069565;28;20332;-66
2023/03/13 11:05:37;;;;;;;1.00;0.85;;;;;;;;;;5067231;28;20574;-63
2023/03/13 11:08:21;;;;;;;1.27;1.00;;;;;;;;;;5067416;28;20207;-63
2023/03/13 11:10:54;;;;;;;1.13;0.95;;;;;;;;;;5067661;28;20230;-63
2023/03/13 11:13:28;;;;;;;0.88;0.88;;;;;;;;;;5067558;28;20687;-63
2023/03/13 11:15:58;;;;;;;2.25;0.73;;;;;;;;;;5067489;28;20214;-63
2023/03/13 11:18:30;;;;;;;1.48;0.70;;;;;;;;;;5067311;28;20344;-63
2023/03/13 11:20:58;;;;;;;0.70;0.70;;;;;;;;;;5066896;28;20222;-62
2023/03/13 11:23:28;;;;;;;0.90;0.85;;;;;;;;;;5067384;28;20219;-62
2023/03/13 11:26:03;;;;;;;1.15;0.75;;;;;;;;;;5051759;28;20212;-62
2023/03/13 11:28:36;;;;;;;0.60;0.60;;;;;;;;;;5048858;28;20305;-62
2023/03/13 11:31:09;;;;;;;0.60;0.60;;;;;;;;;;5060651;28;20223;-64
2023/03/13 11:33:39;;;;;;;0.70;0.70;;;;;;;;;;5066114;28;20832;-62
2023/03/13 11:36:11;;;;;;;0.60;0.60;;;;;;;;;;5068843;28;20207;-62
2023/03/13 11:38:41;;;;;;;0.50;0.50;;;;;;;;;;5070563;28;20238;-62
2023/03/13 11:41:21;;;;;;;2.38;1.00;;;;;;;;;;5071033;28;20206;-62
2023/03/13 11:43:55;;;;;;;0.40;0.40;;;;;;;;;;5070928;28;20558;-64
2023/03/13 11:46:27;;;;;;;0.60;0.60;;;;;;;;;;5068274;28;20210;-60
2023/03/13 11:49:09;;;;;;;0.70;0.70;;;;;;;;;;5071091;28;20377;-60
2023/03/13 11:51:41;;;;;;;0.65;0.65;;;;;;;;;;5041874;28;20226;-60
2023/03/13 11:54:23;;;;;;;0.88;0.65;;;;;;;;;;5091046;28;20267;-61
2023/03/13 11:56:53;;;;;;;0.50;0.50;;;;;;;;;;5084685;28;20321;-61
2023/03/13 11:59:27;;;;;;;2.10;0.65;;;;;;;;;;5070553;28;20207;-61
2023/03/13 12:01:57;;;;;;;1.50;0.88;;;;;;;;;;5089273;28;20260;-61
2023/03/13 12:04:27;;;;;;;1.20;0.70;;;;;;;;;;5091184;28;20219;-61
2023/03/13 12:06:56;;;;;;;1.08;0.63;;;;;;;;;;5075944;28;20329;-61
2023/03/13 12:09:27;;;;;;;0.82;0.80;;;;;;;;;;5070738;28;20215;-61
2023/03/13 12:11:58;;;;;;;0.57;0.57;;;;;;;;;;5078745;28;20218;-63
2023/03/13 12:14:27;;;;;;;1.15;0.80;;;;;;;;;;5088947;28;20206;-64
2023/03/13 12:16:55;;;;;;;0.47;0.47;;;;;;;;;;5088207;28;20214;-62
2023/03/13 12:19:26;;;;;;;1.17;0.80;;;;;;;;;;5085532;28;20601;-62
2023/03/13 12:21:54;;;;;;;0.50;0.50;;;;;;;;;;5090528;28;20226;-62
2023/03/13 12:24:27;;;;;;;0.40;0.40;;;;;;;;;;5086465;28;20206;-63
2023/03/13 12:26:59;;;;;;;0.60;0.60;;;;;;;;;;5090307;28;20237;-62
2023/03/13 12:29:32;;;;;;;0.43;0.43;;;;;;;;;;5050490;28;20212;-63
2023/03/13 12:32:03;;;;;;;0.40;0.40;;;;;;;;;;5084568;28;20230;-63
2023/03/13 12:34:31;;;;;;;1.38;0.70;;;;;;;;;;5088416;28;20704;-62
2023/03/13 12:37:05;;;;;;;0.60;0.60;;;;;;;;;;5069895;28;20558;-62
2023/03/13 12:39:35;;;;;;;0.80;0.70;;;;;;;;;;5070135;28;20292;-63
2023/03/13 12:42:10;;;;;;;0.60;0.60;;;;;;;;;;5080950;28;20199;-62
2023/03/13 12:44:39;;;;;;;0.57;0.57;;;;;;;;;;5089135;28;20216;-60
2023/03/13 12:47:09;;;;;;;0.40;0.40;;;;;;;;;;5085271;28;20207;-61
2023/03/13 12:49:43;;;;;;;0.60;0.60;;;;;;;;;;5088090;28;20252;-61
2023/03/13 12:52:16;;;;;;;0.70;0.70;;;;;;;;;;5089529;28;20286;-61
2023/03/13 12:55:03;;;;;;;0.75;0.57;;;;;;;;;;5074447;28;20210;-61
2023/03/13 12:57:48;;;;;;;1.45;0.50;;;;;;;;;;5089297;28;20651;-62
2023/03/13 13:00:19;;;;;;;0.50;0.50;;;;;;;;;;5049630;28;20220;-62
2023/03/13 13:02:47;;;;;;;0.60;0.60;;;;;;;;;;5078165;28;20209;-62
2023/03/13 13:05:18;;;;;;;0.60;0.60;;;;;;;;;;5088553;28;20688;-62
2023/03/13 13:07:52;;;;;;;0.55;0.55;;;;;;;;;;5089862;28;20202;-63
2023/03/13 13:10:23;;;;;;;0.60;0.60;;;;;;;;;;5070026;28;20745;-60
2023/03/13 13:13:05;;;;;;;0.50;0.50;;;;;;;;;;5077298;28;20301;-61
2023/03/13 13:15:34;;;;;;;0.60;0.60;;;;;;;;;;5088372;28;20263;-62
2023/03/13 13:18:03;;;;;;;2.20;0.60;;;;;;;;;;5069365;28;20219;-63
2023/03/13 13:20:35;;;;;;;1.75;0.80;;;;;;;;;;5069213;28;20207;-63
2023/03/13 13:23:20;;;;;;;1.65;0.60;;;;;;;;;;5077023;28;20233;-62
2023/03/13 13:25:48;;;;;;;0.43;0.43;;;;;;;;;;5069857;28;20218;-61
2023/03/13 13:28:29;;;;;;;0.60;0.60;;;;;;;;;;5089154;28;20751;-62
2023/03/13 13:30:57;;;;;;;0.50;0.50;;;;;;;;;;5075831;28;20226;-61
2023/03/13 13:33:39;;;;;;;0.60;0.60;;;;;;;;;;5068817;28;20218;-62
2023/03/13 13:36:25;;;;;;;0.63;0.63;;;;;;;;;;5069165;28;20203;-61
2023/03/13 13:38:52;;;;;;;0.98;0.52;;;;;;;;;;5068674;28;20246;-61
2023/03/13 13:41:25;;;;;;;1.80;0.50;;;;;;;;;;5083293;28;20249;-61
2023/03/13 13:44:07;;;;;;;2.05;0.50;;;;;;;;;;5089104;28;20334;-61
2023/03/13 13:46:35;;;;;;;0.60;0.60;;;;;;;;;;5072676;28;20211;-61
2023/03/13 13:49:15;;;;;;;0.40;0.40;;;;;;;;;;5059721;28;20203;-62
2023/03/13 13:51:42;;;;;;;0.50;0.50;;;;;;;;;;5087844;28;20291;-62
2023/03/13 13:54:24;;;;;;;1.27;0.38;;;;;;;;;;5087039;28;20202;-61
2023/03/13 13:56:58;;;;;;;0.50;0.50;;;;;;;;;;5068581;28;20207;-62
2023/03/13 13:59:43;;;;;;;0.50;0.50;;;;;;;;;;5068899;28;20218;-64
2023/03/13 14:02:28;;;;;;;0.60;0.60;;;;;;;;;;5068718;28;20203;-62
2023/03/13 14:05:01;;;;;;;0.65;0.50;;;;;;;;;;5080564;28;20210;-62
2023/03/13 14:07:47;;;;;;;0.40;0.40;;;;;;;;;;5078055;28;20669;-62
2023/03/13 14:10:18;;;;;;;0.50;0.50;;;;;;;;;;5069118;28;20207;-61
2023/03/13 14:12:47;;;;;;;0.30;0.30;;;;;;;;;;5070119;28;20655;-65
2023/03/13 14:15:18;;;;;;;0.60;0.60;;;;;;;;;;5079742;28;20211;-62
2023/03/13 14:17:47;;;;;;;0.90;0.50;;;;;;;;;;5073420;28;20206;-62
2023/03/13 14:20:27;;;;;;;0.60;0.60;;;;;;;;;;5080844;28;20293;-62
2023/03/13 14:22:54;;;;;;;0.55;0.52;;;;;;;;;;5072115;28;20218;-61
2023/03/13 14:25:21;;;;;;;5.28;0.43;;;;;;;;;;5082285;28;20213;-62
2023/03/13 14:27:49;;;;;;;0.40;0.40;;;;;;;;;;5063528;28;20207;-62
2023/03/13 14:30:17;;;;;;;0.40;0.40;;;;;;;;;;5083071;28;20613;-62
2023/03/13 14:32:44;;;;;;;1.60;0.80;;;;;;;;;;5066359;28;20229;-62
2023/03/13 14:35:12;;;;;;;0.50;0.50;;;;;;;;;;5070907;28;20207;-62
2023/03/13 14:37:43;;;;;;;0.52;0.52;;;;;;;;;;5086627;28;20683;-62
2023/03/13 14:40:19;;;;;;;0.30;0.30;;;;;;;;;;5070221;28;20210;-63
2023/03/13 14:42:47;;;;;;;0.50;0.50;;;;;;;;;;5088119;28;20203;-62
2023/03/13 14:45:16;;;;;;;0.57;0.57;;;;;;;;;;5078104;28;20204;-62
2023/03/13 14:47:43;;;;;;;0.40;0.40;;;;;;;;;;5081852;28;20210;-62
2023/03/13 14:50:11;;;;;;;0.65;0.50;;;;;;;;;;5076408;28;20199;-61
2023/03/13 14:52:40;;;;;;;0.50;0.50;;;;;;;;;;5064528;28;20637;-68
2023/03/13 14:55:27;;;;;;;0.43;0.43;;;;;;;;;;5084545;28;20206;-63